Time;durP1;ratioP1;P1;durP2;ratioP2;P2;SDS_P1;SDS_P2;PMS_P1;PMS_P2;Temp;Humidity;BMP_temperature;BMP_pressure;BME280_temperature;BME280_humidity;BME280_pressure;Samples;Min_cycle;Max_cycle;Signal;HPM_P1;HPM_P2
2023/02/23 00:02:45;;;;;;;62.30;32.13;;;10.30;85.20;;;;;;9160483;19;20022;-66
2023/02/23 00:05:49;;;;;;;68.80;31.42;;;10.30;85.20;;;;;;9158443;19;20431;-64
2023/02/23 00:08:56;;;;;;;56.70;30.65;;;10.30;85.20;;;;;;9168722;19;20018;-66
2023/02/23 00:12:06;;;;;;;64.68;31.40;;;10.30;85.20;;;;;;9164227;19;20014;-64
2023/02/23 00:15:14;;;;;;;63.72;31.42;;;10.30;85.20;;;;;;9170081;19;20026;-64
2023/02/23 00:18:19;;;;;;;72.60;33.58;;;10.30;85.30;;;;;;9168527;19;20014;-69
2023/02/23 00:21:28;;;;;;;64.70;32.95;;;10.30;85.20;;;;;;9175585;19;20033;-64
2023/02/23 00:24:35;;;;;;;70.68;33.70;;;10.20;85.20;;;;;;9176703;19;20022;-66
2023/02/23 00:27:43;;;;;;;67.63;34.10;;;10.20;85.30;;;;;;9175738;19;20014;-66
2023/02/23 00:30:48;;;;;;;63.92;32.35;;;10.30;85.30;;;;;;9175006;19;20026;-64
2023/02/23 00:33:57;;;;;;;73.43;34.60;;;10.30;85.30;;;;;;9173045;19;20480;-65
2023/02/23 00:37:01;;;;;;;66.10;34.65;;;10.20;85.30;;;;;;9171328;19;20033;-65
2023/02/23 00:40:11;;;;;;;70.80;34.65;;;10.20;85.30;;;;;;9170294;19;20352;-65
2023/02/23 00:43:17;;;;;;;72.03;33.58;;;10.20;85.30;;;;;;9174803;19;20024;-64
2023/02/23 00:46:29;;;;;;;73.85;35.22;;;10.20;85.30;;;;;;9174611;19;20372;-65
2023/02/23 00:49:34;;;;;;;70.40;33.67;;;10.20;85.40;;;;;;9173677;19;20353;-67
2023/02/23 00:52:42;;;;;;;67.18;31.95;;;10.20;85.40;;;;;;9173244;19;20022;-67
2023/02/23 00:55:46;;;;;;;69.03;32.65;;;10.20;85.30;;;;;;9174364;19;20478;-65
2023/02/23 00:58:52;;;;;;;73.05;34.55;;;10.20;85.50;;;;;;9174952;19;20034;-63
2023/02/23 01:01:57;;;;;;;71.30;34.42;;;10.20;85.40;;;;;;9169735;19;20502;-65
2023/02/23 01:05:03;;;;;;;77.00;35.45;;;10.20;85.40;;;;;;9174722;19;20030;-65
2023/02/23 01:08:08;;;;;;;78.63;34.60;;;10.20;85.40;;;;;;9174123;19;20376;-64
2023/02/23 01:11:16;;;;;;;71.90;33.90;;;10.20;85.50;;;;;;9172345;19;20026;-67
2023/02/23 01:14:21;;;;;;;67.47;33.83;;;10.20;85.50;;;;;;9181081;19;20018;-63
2023/02/23 01:17:29;;;;;;;76.90;34.78;;;10.20;85.50;;;;;;9180872;19;20048;-66
2023/02/23 01:20:35;;;;;;;70.22;34.85;;;10.20;85.50;;;;;;9177236;19;20015;-65
2023/02/23 01:23:41;;;;;;;72.65;35.63;;;10.20;85.50;;;;;;9182729;19;20014;-68
2023/02/23 01:26:46;;;;;;;;;;;10.20;85.40;;;;;;9183183;19;20035;-66
2023/02/23 01:29:52;;;;;;;77.72;34.88;;;10.20;85.50;;;;;;9181372;19;19918;-65
2023/02/23 01:32:57;;;;;;;66.70;33.33;;;10.20;85.40;;;;;;9182490;19;20011;-65
2023/02/23 01:36:06;;;;;;;71.13;34.70;;;10.20;85.50;;;;;;9179701;19;20044;-64
2023/02/23 01:39:13;;;;;;;73.43;32.72;;;10.20;85.50;;;;;;9182396;19;20029;-65
2023/02/23 01:42:21;;;;;;;69.15;35.28;;;10.20;85.50;;;;;;9181732;19;20636;-65
2023/02/23 01:45:29;;;;;;;72.90;33.17;;;10.20;85.50;;;;;;9179428;19;20022;-65
2023/02/23 01:48:40;;;;;;;78.50;35.35;;;10.20;85.50;;;;;;9182329;19;20476;-66
2023/02/23 01:51:49;;;;;;;74.57;35.63;;;10.20;85.60;;;;;;9181549;19;20022;-64
2023/02/23 01:54:56;;;;;;;71.85;33.78;;;10.20;85.50;;;;;;9182093;19;20590;-65
2023/02/23 01:58:10;;;;;;;71.05;34.90;;;10.20;85.70;;;;;;9178551;19;20022;-64
2023/02/23 02:01:16;;;;;;;65.43;32.72;;;10.20;86.20;;;;;;9175965;19;20022;-67
2023/02/23 02:04:24;;;;;;;79.00;35.20;;;10.20;85.60;;;;;;9170263;19;20041;-66
2023/02/23 02:11:29;;;;;;;74.20;32.33;;;10.20;85.60;;;;;;9178263;19;20018;-69
2023/02/23 02:14:37;;;;;;;77.05;33.40;;;10.10;85.50;;;;;;9179459;19;20019;-70
2023/02/23 02:17:52;;;;;;;77.95;33.95;;;10.10;85.50;;;;;;9177038;19;20160;-70
2023/02/23 02:21:34;;;;;;;72.03;33.40;;;10.10;85.50;;;;;;9174028;19;20023;-70
2023/02/23 02:25:17;;;;;;;80.30;33.90;;;10.10;85.60;;;;;;9177314;19;20014;-69
2023/02/23 02:28:42;;;;;;;81.72;34.10;;;10.10;85.60;;;;;;9178054;19;20021;-70
2023/02/23 02:32:30;;;;;;;79.88;32.72;;;10.10;85.50;;;;;;9181771;19;20029;-69
2023/02/23 02:36:06;;;;;;;73.25;32.42;;;10.00;85.50;;;;;;9180747;19;20015;-70
2023/02/23 02:39:22;;;;;;;75.90;33.80;;;10.00;85.50;;;;;;9178928;19;20838;-69
2023/02/23 02:42:34;;;;;;;69.80;32.25;;;10.00;85.50;;;;;;9180840;19;20476;-69
2023/02/23 02:45:49;;;;;;;75.15;32.97;;;10.00;85.50;;;;;;9179604;19;20028;-70
2023/02/23 02:49:02;;;;;;;72.75;34.45;;;10.00;85.50;;;;;;9178356;19;20018;-69
2023/02/23 02:52:12;;;;;;;71.30;33.53;;;10.00;85.50;;;;;;9178334;19;20010;-70
2023/02/23 02:55:24;;;;;;;73.45;33.45;;;9.90;85.60;;;;;;9179696;19;20011;-71
2023/02/23 02:58:30;;;;;;;75.03;33.72;;;9.90;85.50;;;;;;9174801;19;20653;-70
2023/02/23 04:19:20;;;;;;;89.63;35.05;;;9.80;85.80;;;;;;9170205;19;20026;-70
2023/02/23 04:22:26;;;;;;;105.50;37.53;;;9.70;85.80;;;;;;9175061;19;20022;-70
2023/02/23 04:25:31;;;;;;;99.13;37.30;;;9.70;85.70;;;;;;9175224;19;20018;-70
2023/02/23 04:28:37;;;;;;;93.28;36.60;;;9.70;85.80;;;;;;9176694;19;20015;-69
2023/02/23 04:31:42;;;;;;;;;;;9.70;85.80;;;;;;9177815;19;20722;-70
2023/02/23 04:34:50;;;;;;;95.05;36.97;;;9.70;85.80;;;;;;9175908;19;20235;-70
2023/02/23 04:37:54;;;;;;;92.78;36.95;;;9.70;85.70;;;;;;9172499;19;20013;-70
2023/02/23 04:41:00;;;;;;;94.95;35.75;;;9.70;85.70;;;;;;9175858;19;20007;-70
2023/02/23 04:44:04;;;;;;;;;;;9.70;85.70;;;;;;9175382;19;20078;-70
2023/02/23 04:47:10;;;;;;;85.28;33.45;;;9.70;85.80;;;;;;9172749;19;20295;-70
2023/02/23 04:50:17;;;;;;;88.65;36.00;;;9.70;85.80;;;;;;9184252;19;20002;-70
2023/02/23 04:53:24;;;;;;;97.65;36.03;;;9.70;85.80;;;;;;9182455;19;20023;-70
2023/02/23 04:56:28;;;;;;;90.93;35.35;;;9.70;85.80;;;;;;9184297;19;20018;-71
2023/02/23 04:59:35;;;;;;;91.20;35.42;;;9.60;85.80;;;;;;9183710;19;20022;-70
2023/02/23 05:02:39;;;;;;;92.88;36.00;;;9.70;85.90;;;;;;9184080;19;20090;-70
2023/02/23 05:05:47;;;;;;;90.85;34.42;;;9.60;85.80;;;;;;9181891;19;20010;-70
2023/02/23 05:08:54;;;;;;;85.63;34.58;;;9.60;85.90;;;;;;9179509;19;20011;-70
2023/02/23 05:12:00;;;;;;;93.25;34.13;;;9.60;85.80;;;;;;9183279;19;20029;-70
2023/02/23 05:15:04;;;;;;;84.60;33.30;;;9.60;85.90;;;;;;9183328;19;20451;-70
2023/02/23 05:18:10;;;;;;;89.20;34.67;;;9.60;85.90;;;;;;9179805;19;20023;-70
2023/02/23 05:21:16;;;;;;;;;;;9.60;85.90;;;;;;9179794;19;20476;-70
2023/02/23 05:24:22;;;;;;;79.20;32.25;;;9.70;85.90;;;;;;9183272;19;19915;-70
2023/02/23 05:27:26;;;;;;;;;;;9.70;85.80;;;;;;9183388;19;20082;-71
2023/02/23 05:30:32;;;;;;;79.05;32.17;;;9.60;85.80;;;;;;9182525;19;19915;-71
2023/02/23 05:33:41;;;;;;;;;;;9.60;85.80;;;;;;9181846;19;20018;-70
2023/02/23 05:36:49;;;;;;;78.25;30.40;;;9.60;85.80;;;;;;9182609;19;19962;-70
2023/02/23 05:39:53;;;;;;;84.38;31.95;;;9.60;85.80;;;;;;9183448;19;20011;-70
2023/02/23 05:43:00;;;;;;;83.78;32.45;;;9.60;85.80;;;;;;9177434;19;20013;-70
2023/02/23 05:46:07;;;;;;;69.65;30.08;;;9.60;86.00;;;;;;9181338;19;20034;-70
2023/02/23 05:49:13;;;;;;;69.82;29.05;;;9.60;85.90;;;;;;9180686;19;20018;-70
2023/02/23 05:52:19;;;;;;;70.57;29.10;;;9.50;85.90;;;;;;9180497;19;20022;-71
2023/02/23 05:55:25;;;;;;;72.70;30.40;;;9.50;85.90;;;;;;9181068;19;20025;-70
2023/02/23 05:58:30;;;;;;;66.90;28.15;;;9.50;85.90;;;;;;9179751;19;20014;-70
2023/02/23 06:01:36;;;;;;;76.78;28.83;;;9.50;85.90;;;;;;9181094;19;20086;-71
2023/02/23 06:04:40;;;;;;;;;;;9.50;85.90;;;;;;9182528;19;20018;-69
2023/02/23 06:07:48;;;;;;;63.03;26.95;;;9.50;85.90;;;;;;9182612;19;20264;-70
2023/02/23 06:10:53;;;;;;;66.88;27.70;;;9.50;85.90;;;;;;9182011;19;20054;-70
2023/02/23 06:14:00;;;;;;;64.30;28.13;;;9.50;85.90;;;;;;9181378;19;20340;-69
2023/02/23 06:17:04;;;;;;;65.28;27.27;;;9.50;86.00;;;;;;9179198;19;20546;-69
2023/02/23 06:20:13;;;;;;;69.10;27.77;;;9.50;86.00;;;;;;9174411;19;20021;-69
2023/02/23 06:23:19;;;;;;;64.30;26.13;;;9.50;86.00;;;;;;9179457;19;20018;-69
2023/02/23 06:26:26;;;;;;;67.70;28.67;;;9.50;86.00;;;;;;9180551;19;20030;-69
2023/02/23 06:29:30;;;;;;;;;;;9.50;86.00;;;;;;9181361;19;20368;-69
2023/02/23 06:32:40;;;;;;;69.30;27.85;;;9.50;86.00;;;;;;9180386;19;19930;-71
2023/02/23 06:35:51;;;;;;;64.95;27.42;;;9.50;86.00;;;;;;9179226;19;20037;-69
2023/02/23 06:39:00;;;;;;;74.13;28.30;;;9.50;86.00;;;;;;9177088;19;20030;-70
2023/02/23 06:42:05;;;;;;;69.03;28.70;;;9.50;86.00;;;;;;9178658;19;20007;-69
2023/02/23 06:45:12;;;;;;;68.38;28.75;;;9.50;86.10;;;;;;9180694;19;20007;-69
2023/02/23 06:48:16;;;;;;;73.13;28.92;;;9.50;86.10;;;;;;9180163;19;20036;-69
2023/02/23 06:51:22;;;;;;;72.05;29.35;;;9.40;86.00;;;;;;9178323;19;20017;-69
2023/02/23 06:54:28;;;;;;;;;;;9.40;86.00;;;;;;9181046;19;20015;-69
2023/02/23 06:57:34;;;;;;;72.78;29.02;;;9.40;86.00;;;;;;9177180;19;19926;-69
2023/02/23 07:00:41;;;;;;;;;;;9.40;86.00;;;;;;9180485;19;20088;-69
2023/02/23 07:03:47;;;;;;;66.72;28.10;;;9.40;86.00;;;;;;9180351;19;19911;-69
2023/02/23 07:06:51;;;;;;;;;;;9.40;85.90;;;;;;9177992;19;20118;-69
2023/02/23 07:09:59;;;;;;;76.30;30.20;;;9.40;86.00;;;;;;9176990;19;19925;-69
2023/02/23 07:13:03;;;;;;;78.60;31.73;;;9.40;85.90;;;;;;9179855;19;20044;-69
2023/02/23 07:16:10;;;;;;;69.32;30.13;;;9.40;86.00;;;;;;9175677;19;20018;-70
2023/02/23 07:19:14;;;;;;;76.30;30.45;;;9.30;86.10;;;;;;9166349;19;20027;-71
2023/02/23 07:22:21;;;;;;;77.22;30.88;;;9.30;86.10;;;;;;9170946;19;20006;-71
2023/02/23 07:25:27;;;;;;;76.13;31.70;;;9.30;86.20;;;;;;9172095;19;20018;-69
2023/02/23 07:28:33;;;;;;;71.15;28.15;;;9.30;86.20;;;;;;9172239;19;20021;-69
2023/02/23 07:31:37;;;;;;;84.47;29.88;;;9.30;86.20;;;;;;9170276;19;20057;-69
2023/02/23 07:34:44;;;;;;;74.35;30.83;;;9.30;86.30;;;;;;9165910;19;20011;-70
2023/02/23 07:37:48;;;;;;;76.68;29.90;;;9.30;86.30;;;;;;9172129;19;20143;-70
2023/02/23 07:40:56;;;;;;;75.72;30.23;;;9.30;86.30;;;;;;9177895;19;20037;-69
2023/02/23 07:44:01;;;;;;;72.15;29.58;;;9.30;86.40;;;;;;9176192;19;20015;-69
2023/02/23 07:47:07;;;;;;;70.35;30.00;;;9.30;86.30;;;;;;9178187;19;20378;-70
2023/02/23 07:50:12;;;;;;;78.90;30.23;;;9.30;86.30;;;;;;9177109;19;20015;-70
2023/02/23 07:53:18;;;;;;;69.40;30.30;;;9.30;86.30;;;;;;9175883;19;20099;-70
2023/02/23 07:56:24;;;;;;;;;;;9.30;86.40;;;;;;9177831;19;20074;-70
2023/02/23 07:59:30;;;;;;;72.85;29.40;;;9.30;86.40;;;;;;9173248;19;19918;-70
2023/02/23 08:02:35;;;;;;;71.38;30.00;;;9.30;86.30;;;;;;9173985;19;20006;-70
2023/02/23 08:05:43;;;;;;;76.15;29.33;;;9.30;86.30;;;;;;9169731;19;20591;-70
2023/02/23 08:08:48;;;;;;;66.22;27.42;;;9.30;86.40;;;;;;9164808;19;20018;-70
2023/02/23 08:11:55;;;;;;;65.25;26.70;;;9.30;86.40;;;;;;9167744;19;20010;-70
2023/02/23 08:14:59;;;;;;;63.10;27.65;;;9.30;86.40;;;;;;9154275;19;20018;-71
2023/02/23 08:18:06;;;;;;;67.20;27.15;;;9.30;86.40;;;;;;9158139;19;20026;-70
2023/02/23 08:21:10;;;;;;;69.90;27.98;;;9.30;86.40;;;;;;9162028;19;20017;-70
2023/02/23 08:24:16;;;;;;;68.72;28.23;;;9.30;86.40;;;;;;9175897;19;20024;-70
2023/02/23 08:27:22;;;;;;;;;;;9.30;86.50;;;;;;9172173;19;20021;-70
2023/02/23 08:30:28;;;;;;;69.45;29.00;;;9.30;86.50;;;;;;9163323;19;19930;-70
2023/02/23 08:33:34;;;;;;;;;;;9.30;86.40;;;;;;9170329;19;20040;-71
2023/02/23 08:36:40;;;;;;;65.93;27.88;;;9.30;86.50;;;;;;9171545;19;19925;-70
2023/02/23 08:39:44;;;;;;;58.00;26.88;;;9.30;86.40;;;;;;9179943;19;20374;-70
2023/02/23 08:42:53;;;;;;;62.78;27.20;;;9.20;86.40;;;;;;9180167;19;20018;-70
2023/02/23 08:45:57;;;;;;;72.15;27.67;;;9.20;86.50;;;;;;9180282;19;20025;-70
2023/02/23 08:49:03;;;;;;;59.25;25.83;;;9.20;86.60;;;;;;9180513;19;20022;-70
2023/02/23 08:52:07;;;;;;;60.08;25.08;;;9.20;86.50;;;;;;9180468;19;20015;-70
2023/02/23 08:55:15;;;;;;;60.40;25.77;;;9.30;86.60;;;;;;9181668;19;20013;-70
2023/02/23 08:58:22;;;;;;;60.28;26.58;;;9.20;86.60;;;;;;9181499;19;20023;-69
2023/02/23 09:01:28;;;;;;;60.53;24.75;;;9.20;86.60;;;;;;9177753;19;20348;-69
2023/02/23 09:04:34;;;;;;;55.58;24.48;;;9.20;86.60;;;;;;9175132;19;20022;-70
2023/02/23 09:07:43;;;;;;;60.92;24.95;;;9.20;86.70;;;;;;9174278;19;20029;-70
2023/02/23 09:10:47;;;;;;;60.20;25.73;;;9.30;86.70;;;;;;9173931;19;20011;-70
2023/02/23 09:13:55;;;;;;;61.75;26.05;;;9.30;86.70;;;;;;9175231;19;20014;-70
2023/02/23 09:16:59;;;;;;;60.17;25.02;;;9.30;86.70;;;;;;9174252;19;20523;-69
2023/02/23 09:20:08;;;;;;;61.15;24.60;;;9.30;86.80;;;;;;9167202;19;20010;-69
2023/02/23 09:23:13;;;;;;;59.50;24.75;;;9.30;86.80;;;;;;9177616;19;20028;-70
2023/02/23 09:26:20;;;;;;;65.32;27.02;;;9.30;86.80;;;;;;9176342;19;20428;-70
2023/02/23 09:29:26;;;;;;;64.78;25.85;;;9.30;86.80;;;;;;9178670;19;20082;-70
2023/02/23 09:32:33;;;;;;;59.50;26.65;;;9.30;86.80;;;;;;9176686;19;20015;-70
2023/02/23 09:35:38;;;;;;;61.70;25.23;;;9.30;86.80;;;;;;9170420;19;20467;-69
2023/02/23 09:38:44;;;;;;;61.50;25.08;;;9.40;86.90;;;;;;9175914;19;20010;-70
2023/02/23 09:42:17;;;;;;;63.55;26.10;;;9.40;86.90;;;;;;9175384;19;20015;-69
2023/02/23 09:45:33;;;;;;;63.88;25.17;;;9.40;86.90;;;;;;9173791;19;21866;-70
2023/02/23 09:48:37;;;;;;;64.22;25.48;;;9.40;87.20;;;;;;9172766;19;20125;-69
2023/02/23 09:51:48;;;;;;;61.65;26.80;;;9.40;86.90;;;;;;9173086;19;20014;-70
2023/02/23 09:54:53;;;;;;;64.25;27.23;;;9.40;86.90;;;;;;9170287;19;20021;-70
2023/02/23 09:58:06;;;;;;;69.13;25.95;;;9.40;86.90;;;;;;9171248;19;20384;-70
2023/02/23 10:01:44;;;;;;;70.03;26.55;;;9.40;86.90;;;;;;9171034;19;20389;-69
2023/02/23 10:04:53;;;;;;;60.08;23.77;;;9.40;87.00;;;;;;9170433;19;20015;-70
2023/02/23 10:08:08;;;;;;;62.38;26.25;;;9.50;87.00;;;;;;9169433;19;20025;-70
2023/02/23 10:11:24;;;;;;;42.97;17.67;;;9.50;87.00;;;;;;9171733;19;20014;-70
2023/02/23 10:14:56;;;;;;;60.88;25.42;;;9.50;87.00;;;;;;9173040;19;20018;-70
2023/02/23 10:18:12;;;;;;;56.60;23.10;;;9.50;87.00;;;;;;9174038;19;20024;-70
2023/02/23 10:21:21;;;;;;;58.75;23.17;;;9.50;87.00;;;;;;9177128;19;20029;-70
2023/02/23 10:24:31;;;;;;;55.72;21.95;;;9.60;87.00;;;;;;9173303;19;20018;-70
2023/02/23 10:27:41;;;;;;;57.05;23.63;;;9.50;87.00;;;;;;9172839;19;20481;-70
2023/02/23 10:30:49;;;;;;;51.78;22.27;;;9.60;87.10;;;;;;9167421;19;20017;-70
2023/02/23 10:34:00;;;;;;;58.92;25.02;;;9.60;87.00;;;;;;9170813;19;20498;-70
2023/02/23 10:37:11;;;;;;;37.72;17.38;;;9.60;87.10;;;;;;9172485;19;20021;-70
2023/02/23 10:40:19;;;;;;;54.00;23.23;;;9.60;87.10;;;;;;9167427;19;20022;-70
2023/02/23 10:43:25;;;;;;;56.15;23.25;;;9.60;87.00;;;;;;9170983;19;20011;-70
2023/02/23 10:46:33;;;;;;;;;;;9.60;87.10;;;;;;9169331;19;20026;-70
2023/02/23 10:49:45;;;;;;;52.90;21.50;;;9.70;87.10;;;;;;9170702;19;19922;-70
2023/02/23 10:52:51;;;;;;;54.42;22.08;;;9.70;87.00;;;;;;9169728;19;20471;-70
2023/02/23 10:56:09;;;;;;;54.03;21.05;;;9.70;87.10;;;;;;9167673;19;20021;-70
2023/02/23 10:59:20;;;;;;;60.58;22.13;;;9.70;87.10;;;;;;9171706;19;20010;-70
2023/02/23 11:02:29;;;;;;;51.83;21.83;;;9.70;87.10;;;;;;9171338;19;20014;-65
2023/02/23 11:05:38;;;;;;;55.55;23.05;;;9.80;87.20;;;;;;9170246;19;20019;-65
2023/02/23 11:08:44;;;;;;;63.67;22.88;;;9.80;87.10;;;;;;9169514;19;20475;-64
2023/02/23 11:11:58;;;;;;;57.50;23.13;;;9.80;87.10;;;;;;9171750;19;20042;-65
2023/02/23 11:15:27;;;;;;;60.75;21.95;;;9.80;87.20;;;;;;9176218;19;20021;-65
2023/02/23 11:18:55;;;;;;;52.80;21.08;;;9.90;87.20;;;;;;9162039;19;20018;-65
2023/02/23 11:22:04;;;;;;;62.83;22.63;;;9.90;87.70;;;;;;9170849;19;20025;-65
2023/02/23 11:25:18;;;;;;;62.55;23.60;;;9.90;87.10;;;;;;9170461;19;20014;-65
2023/02/23 11:28:29;;;;;;;57.90;23.27;;;9.90;87.10;;;;;;9175579;19;20021;-63
2023/02/23 11:31:35;;;;;;;60.70;23.13;;;10.00;87.10;;;;;;9172047;19;20010;-67
2023/02/23 11:34:42;;;;;;;54.45;22.30;;;10.00;87.10;;;;;;9177818;19;20007;-67
2023/02/23 11:37:48;;;;;;;55.67;21.58;;;10.00;87.10;;;;;;9173499;19;20014;-63
2023/02/23 11:41:06;;;;;;;59.63;22.05;;;10.10;87.10;;;;;;9173809;19;20448;-63
2023/02/23 11:44:20;;;;;;;59.75;22.73;;;10.10;87.10;;;;;;9170184;19;20422;-64
2023/02/23 11:47:27;;;;;;;63.78;24.27;;;10.10;87.00;;;;;;9174622;19;20026;-64
2023/02/23 11:50:34;;;;;;;54.95;22.65;;;10.20;87.00;;;;;;9176663;19;20367;-64
2023/02/23 11:53:48;;;;;;;56.35;22.27;;;10.20;86.90;;;;;;9174819;19;20014;-64
2023/02/23 11:56:54;;;;;;;60.25;23.08;;;10.20;86.90;;;;;;9175234;19;20039;-64
2023/02/23 12:00:09;;;;;;;59.30;22.85;;;10.20;86.80;;;;;;9172430;19;20025;-64
2023/02/23 12:03:24;;;;;;;61.85;22.40;;;10.20;86.80;;;;;;9175178;19;20038;-64
2023/02/23 12:06:32;;;;;;;53.75;20.98;;;10.20;86.80;;;;;;9176101;19;20082;-64
2023/02/23 12:09:38;;;;;;;61.30;21.80;;;10.20;86.80;;;;;;9172695;19;20040;-64
2023/02/23 12:13:01;;;;;;;63.35;24.05;;;10.20;86.70;;;;;;9174482;19;20022;-64
2023/02/23 12:16:11;;;;;;;57.58;22.88;;;10.20;86.70;;;;;;9174604;19;20048;-64
2023/02/23 12:19:25;;;;;;;52.30;20.35;;;10.20;86.70;;;;;;9166254;19;20011;-64
2023/02/23 12:22:35;;;;;;;57.83;20.45;;;10.20;86.70;;;;;;9176873;19;20468;-64
2023/02/23 12:25:49;;;;;;;59.88;24.10;;;10.20;86.70;;;;;;9176979;19;20014;-65
2023/02/23 12:29:01;;;;;;;50.67;20.40;;;10.20;86.60;;;;;;9176071;19;20011;-64
2023/02/23 12:32:15;;;;;;;61.60;23.00;;;10.20;86.60;;;;;;9176154;19;20025;-64
2023/02/23 12:35:23;;;;;;;51.35;21.10;;;10.20;86.70;;;;;;9176047;19;20018;-64
2023/02/23 12:38:47;;;;;;;56.78;22.40;;;10.20;86.70;;;;;;9175648;19;20015;-64
2023/02/23 12:42:02;;;;;;;60.78;21.20;;;10.20;86.60;;;;;;9174874;19;20770;-64
2023/02/23 12:45:18;;;;;;;54.63;22.23;;;10.20;86.60;;;;;;9174669;19;20014;-64
2023/02/23 12:48:34;;;;;;;60.55;24.20;;;10.20;86.60;;;;;;9169489;19;20019;-64
2023/02/23 12:51:44;;;;;;;56.20;22.65;;;10.20;86.60;;;;;;9173555;19;20500;-64
2023/02/23 12:54:49;;;;;;;61.85;22.45;;;10.20;86.60;;;;;;9176499;19;20519;-64
2023/02/23 12:58:06;;;;;;;54.00;21.98;;;10.20;86.60;;;;;;9174090;19;20022;-64
2023/02/23 13:01:15;;;;;;;60.42;21.25;;;10.20;86.50;;;;;;9174391;19;20492;-64
2023/02/23 13:04:45;;;;;;;53.90;21.92;;;10.10;86.40;;;;;;9172159;19;20368;-67
2023/02/23 13:07:59;;;;;;;52.70;21.35;;;10.20;86.50;;;;;;9164321;19;20082;-64
2023/02/23 13:11:27;;;;;;;51.90;21.48;;;10.10;86.50;;;;;;9175415;19;20014;-64
2023/02/23 13:14:38;;;;;;;54.17;21.70;;;10.10;86.50;;;;;;9181135;19;20014;-64
2023/02/23 13:17:50;;;;;;;57.85;22.60;;;10.10;86.40;;;;;;9180401;19;20014;-64
2023/02/23 13:21:02;;;;;;;56.13;23.95;;;10.10;86.50;;;;;;9172250;19;20039;-64
2023/02/23 13:24:13;;;;;;;53.75;19.75;;;10.10;86.50;;;;;;9179069;19;20057;-64
2023/02/23 13:27:22;;;;;;;50.65;20.50;;;10.10;86.40;;;;;;9178588;19;20545;-64
2023/02/23 13:30:35;;;;;;;53.00;20.38;;;10.10;86.40;;;;;;9175155;19;20014;-63
2023/02/23 13:33:42;;;;;;;51.55;21.63;;;10.10;86.40;;;;;;9169730;19;20026;-64
2023/02/23 13:36:51;;;;;;;45.13;18.90;;;10.10;86.40;;;;;;9182246;19;20023;-63
2023/02/23 13:40:03;;;;;;;47.03;19.65;;;10.10;86.40;;;;;;9180626;19;20021;-64
2023/02/23 13:43:16;;;;;;;48.10;19.30;;;10.00;86.40;;;;;;9181771;19;20013;-64
2023/02/23 13:46:30;;;;;;;43.35;17.55;;;10.00;86.50;;;;;;9181948;19;20018;-64
2023/02/23 13:49:44;;;;;;;45.72;17.52;;;10.00;86.50;;;;;;9177594;19;20015;-64
2023/02/23 13:52:48;;;;;;;46.03;17.33;;;10.00;86.40;;;;;;9167206;19;20457;-65
2023/02/23 13:55:54;;;;;;;43.00;17.50;;;10.00;86.50;;;;;;9166723;19;20025;-64
2023/02/23 13:59:01;;;;;;;48.17;16.10;;;10.00;86.50;;;;;;9167732;19;20048;-64
2023/02/23 14:02:26;;;;;;;37.53;14.80;;;10.00;86.50;;;;;;9175297;19;20364;-64
2023/02/23 14:05:32;;;;;;;41.58;16.10;;;10.10;87.10;;;;;;9178621;19;20011;-64
2023/02/23 14:08:40;;;;;;;46.60;15.95;;;10.00;86.40;;;;;;9177062;19;20344;-65
2023/02/23 14:11:49;;;;;;;44.38;16.13;;;10.10;86.50;;;;;;9178228;19;20010;-65
2023/02/23 14:14:56;;;;;;;37.58;15.25;;;10.10;86.50;;;;;;9166805;19;20030;-64
2023/02/23 14:18:02;;;;;;;43.58;16.90;;;10.10;86.50;;;;;;9168632;19;20015;-64
2023/02/23 14:21:21;;;;;;;39.22;16.65;;;10.10;86.50;;;;;;9165151;19;20010;-64
2023/02/23 14:24:27;;;;;;;44.78;16.08;;;10.10;86.50;;;;;;9172901;19;20010;-65
2023/02/23 14:27:44;;;;;;;48.90;15.80;;;10.20;86.50;;;;;;9169934;19;20022;-65
2023/02/23 14:30:52;;;;;;;49.38;17.30;;;10.20;86.50;;;;;;9172789;19;20019;-65
2023/02/23 14:34:07;;;;;;;48.72;17.77;;;10.20;86.50;;;;;;9170974;19;20445;-65
2023/02/23 14:37:31;;;;;;;49.40;16.70;;;10.20;86.40;;;;;;9169583;19;20021;-65
2023/02/23 14:40:41;;;;;;;44.97;15.80;;;10.20;86.40;;;;;;9165680;19;20476;-65
2023/02/23 14:43:46;;;;;;;55.88;17.85;;;10.20;86.30;;;;;;9170403;19;20022;-65
2023/02/23 14:46:58;;;;;;;56.45;18.40;;;10.20;86.30;;;;;;9170526;19;20025;-65
2023/02/23 14:50:04;;;;;;;59.47;19.88;;;10.20;86.30;;;;;;9171524;19;20019;-64
2023/02/23 14:53:19;;;;;;;64.43;20.20;;;10.20;86.30;;;;;;9154084;19;20018;-65
2023/02/23 14:56:24;;;;;;;70.60;21.40;;;10.20;86.20;;;;;;9166079;19;20222;-64
2023/02/23 14:59:45;;;;;;;60.75;18.40;;;10.10;86.10;;;;;;9168710;19;20048;-65
2023/02/23 15:02:58;;;;;;;60.15;18.90;;;10.10;86.20;;;;;;9169169;19;20040;-64
2023/02/23 15:06:06;;;;;;;62.15;20.33;;;10.10;86.10;;;;;;9161421;19;20013;-65
2023/02/23 15:09:18;;;;;;;55.85;19.23;;;10.10;86.10;;;;;;9160861;19;20018;-64
2023/02/23 15:12:28;;;;;;;55.10;18.42;;;10.10;86.10;;;;;;9167424;19;20069;-64
2023/02/23 15:15:32;;;;;;;73.43;22.83;;;10.10;86.00;;;;;;9165347;19;20022;-64
2023/02/23 15:18:41;;;;;;;67.65;19.90;;;10.10;86.00;;;;;;9159784;19;20803;-64
2023/02/23 15:21:53;;;;;;;70.85;20.67;;;10.10;86.00;;;;;;9165615;19;20014;-64
2023/02/23 15:25:01;;;;;;;70.63;21.85;;;10.10;86.00;;;;;;9167799;19;20006;-63
2023/02/23 15:28:20;;;;;;;67.28;20.92;;;10.10;86.00;;;;;;9172033;19;20046;-64
2023/02/23 15:31:31;;;;;;;64.45;20.38;;;10.10;86.00;;;;;;9174117;19;20014;-64
2023/02/23 15:34:36;;;;;;;62.85;20.92;;;10.10;86.10;;;;;;9178669;19;20093;-64
2023/02/23 15:37:48;;;;;;;75.60;21.88;;;10.10;86.10;;;;;;9175075;19;20101;-64
2023/02/23 15:41:16;;;;;;;59.25;18.52;;;10.10;86.10;;;;;;9174270;19;20034;-64
2023/02/23 15:44:24;;;;;;;64.68;20.00;;;10.10;86.10;;;;;;9161940;19;20014;-65
2023/02/23 15:47:35;;;;;;;61.88;19.05;;;10.10;86.10;;;;;;9156567;19;20065;-64
2023/02/23 15:50:48;;;;;;;59.28;18.98;;;10.10;86.10;;;;;;9164537;19;20010;-65
2023/02/23 15:53:55;;;;;;;63.83;19.25;;;10.10;86.40;;;;;;9171112;19;20026;-64
2023/02/23 15:57:06;;;;;;;71.50;20.95;;;10.10;86.10;;;;;;9171756;19;20022;-65
2023/02/23 16:00:22;;;;;;;74.70;21.45;;;10.10;86.10;;;;;;9168505;19;20028;-64
2023/02/23 16:03:32;;;;;;;72.50;19.10;;;10.10;86.10;;;;;;9171973;19;20022;-64
2023/02/23 16:06:40;;;;;;;71.28;20.77;;;10.10;86.00;;;;;;9171866;19;20484;-64
2023/02/23 16:09:54;;;;;;;70.38;20.63;;;10.10;85.90;;;;;;9169177;19;20025;-64
2023/02/23 16:13:02;;;;;;;64.88;19.20;;;10.10;85.90;;;;;;9176104;19;20006;-64
2023/02/23 16:16:17;;;;;;;73.63;21.67;;;10.10;85.90;;;;;;9173887;19;20014;-65
2023/02/23 16:19:24;;;;;;;67.97;17.80;;;10.10;85.90;;;;;;9158242;19;20030;-65
2023/02/23 16:22:30;;;;;;;67.95;19.77;;;10.10;85.90;;;;;;9168650;19;20019;-65
2023/02/23 16:25:35;;;;;;;;;;;10.10;85.90;;;;;;9171898;19;20488;-69
2023/02/23 16:28:44;;;;;;;65.03;17.83;;;10.10;85.90;;;;;;9160830;19;19923;-65
2023/02/23 16:31:49;;;;;;;49.92;12.57;;;10.10;85.90;;;;;;9169267;19;20078;-64
2023/02/23 16:35:00;;;;;;;34.30;8.93;;;10.10;85.80;;;;;;9169309;19;20026;-64
2023/02/23 16:38:11;;;;;;;22.65;4.70;;;10.00;85.80;;;;;;9166527;19;20135;-64
2023/02/23 16:41:21;;;;;;;16.92;3.47;;;10.00;85.80;;;;;;9161778;19;20014;-65
2023/02/23 16:44:27;;;;;;;22.60;4.78;;;9.90;85.80;;;;;;9169593;19;20051;-64
2023/02/23 16:47:48;;;;;;;16.27;3.45;;;9.90;85.80;;;;;;9173409;19;20015;-65
2023/02/23 16:50:52;;;;;;;22.92;3.58;;;9.80;85.80;;;;;;9170010;19;20026;-65
2023/02/23 16:53:58;;;;;;;9.73;2.50;;;9.80;85.80;;;;;;9170689;19;20022;-64
2023/02/23 16:57:05;;;;;;;20.40;3.42;;;9.70;85.70;;;;;;9162920;19;20037;-64
2023/02/23 17:00:19;;;;;;;12.80;2.05;;;9.60;85.80;;;;;;9164345;19;20379;-64
2023/02/23 17:03:25;;;;;;;17.25;2.90;;;9.50;85.70;;;;;;9163481;19;20037;-64
2023/02/23 17:06:31;;;;;;;9.63;3.35;;;9.40;85.70;;;;;;9166489;19;20017;-63
2023/02/23 17:09:35;;;;;;;10.75;2.78;;;9.40;85.70;;;;;;9162752;19;20624;-63
2023/02/23 17:12:46;;;;;;;12.85;2.92;;;9.30;85.70;;;;;;9163407;19;20022;-64
2023/02/23 17:15:55;;;;;;;22.58;3.47;;;9.20;85.70;;;;;;9161474;19;20048;-64
2023/02/23 17:19:01;;;;;;;16.58;2.50;;;9.10;85.70;;;;;;9168102;19;20010;-64
2023/02/23 17:22:05;;;;;;;19.23;2.65;;;9.00;85.70;;;;;;9174496;19;20048;-65
2023/02/23 17:25:13;;;;;;;20.10;3.80;;;9.00;85.70;;;;;;9173945;19;20053;-64
2023/02/23 17:28:20;;;;;;;22.83;3.42;;;8.90;85.70;;;;;;9173550;19;20011;-64
2023/02/23 17:31:26;;;;;;;30.13;3.95;;;8.80;85.70;;;;;;9173456;19;20007;-64
2023/02/23 17:34:31;;;;;;;31.77;4.13;;;8.70;85.70;;;;;;9172688;19;20018;-63
2023/02/23 17:37:38;;;;;;;35.40;4.55;;;8.70;85.80;;;;;;9175669;19;20030;-64